Hamlet, North Dakota
Current Conditions -  °F | °C
As of 11:15 PM on Friday 21 Nov 2014 (Local Time) from KD60 Reporting Station
Clear Clear  
Wind Chill: 16°   Ceiling: Unl
Heat Index: 27°   Visibility: 10mi
Dew Point: 27°   Wind: 13mph
Humidity: 100%   Direction: 220°SW
Pressure: 29.63"   Gusts: NA
Location:  48.5899°N, 103.211°W
Report Text: KD60 220515Z AUTO 22011KT 10SM CLR M03/M03 A2963 RMK AO2
Loading
Personal Weather Stations






























Interactive Weather Map New forecast layout! Learn more

10-Day Weather Forecast

Advertisements
Track Severe Weather on mobile